Time;durP1;ratioP1;P1;durP2;ratioP2;P2;SDS_P1;SDS_P2;PMS_P1;PMS_P2;Temp;Humidity;BMP_temperature;BMP_pressure;BME280_temperature;BME280_humidity;BME280_pressure;Samples;Min_cycle;Max_cycle;Signal;HPM_P1;HPM_P2
2022/08/21 00:01:26;;;;;;;8.18;4.78;;;15.20;99.90;;;;;;5154606;27;20074;-65
2022/08/21 00:03:53;;;;;;;9.95;4.90;;;15.10;99.90;;;;;;5137837;27;20095;-66
2022/08/21 00:06:20;;;;;;;8.30;4.93;;;15.10;99.90;;;;;;5155595;27;20139;-67
2022/08/21 00:08:47;;;;;;;12.43;5.50;;;15.10;99.90;;;;;;5156434;27;20049;-67
2022/08/21 00:11:15;;;;;;;11.73;4.95;;;15.10;99.90;;;;;;5137161;27;20059;-66
2022/08/21 00:13:42;;;;;;;9.45;4.10;;;15.00;99.90;;;;;;5155669;27;20042;-66
2022/08/21 00:16:09;;;;;;;13.43;5.05;;;15.00;99.90;;;;;;5135356;27;20142;-66
2022/08/21 00:18:36;;;;;;;12.50;4.97;;;15.00;99.90;;;;;;5138080;27;20054;-66
2022/08/21 00:21:03;;;;;;;9.02;4.93;;;15.00;99.90;;;;;;5155078;27;20047;-66
2022/08/21 00:23:30;;;;;;;9.43;4.55;;;14.90;99.90;;;;;;5155852;27;20118;-66
2022/08/21 00:25:57;;;;;;;10.43;4.43;;;14.90;99.90;;;;;;5156088;27;20062;-65
2022/08/21 00:28:25;;;;;;;9.77;4.47;;;14.90;99.90;;;;;;5155455;27;20095;-66
2022/08/21 00:30:52;;;;;;;8.25;4.65;;;14.80;99.90;;;;;;5137267;27;20050;-66
2022/08/21 00:33:19;;;;;;;12.65;5.32;;;14.80;99.90;;;;;;5137267;27;20046;-65
2022/08/21 00:35:46;;;;;;;7.65;4.60;;;14.80;99.90;;;;;;5154820;27;20493;-66
2022/08/21 00:38:13;;;;;;;11.60;4.80;;;14.80;99.90;;;;;;5155598;27;20082;-65
2022/08/21 00:40:44;;;;;;;7.47;5.10;;;14.80;99.90;;;;;;5155738;27;20517;-67
2022/08/21 00:43:15;;;;;;;9.45;4.50;;;14.70;99.90;;;;;;5130341;27;20047;-65
2022/08/21 00:45:43;;;;;;;6.45;4.57;;;14.70;99.90;;;;;;5134894;27;20078;-65
2022/08/21 00:48:10;;;;;;;10.90;5.10;;;14.70;99.90;;;;;;5116186;27;20043;-66
2022/08/21 00:50:42;;;;;;;8.32;4.85;;;14.70;99.90;;;;;;5116271;27;20089;-66
2022/08/21 00:53:12;;;;;;;10.50;4.60;;;14.70;99.90;;;;;;5135065;27;20051;-66
2022/08/21 00:55:39;;;;;;;8.40;4.82;;;14.60;99.90;;;;;;5133805;27;20498;-66
2022/08/21 00:58:08;;;;;;;8.25;4.43;;;14.60;99.90;;;;;;5123244;27;20042;-66
2022/08/21 01:00:38;;;;;;;13.90;4.65;;;14.60;99.90;;;;;;5136502;27;20042;-66
2022/08/21 01:03:08;;;;;;;;;;;14.60;99.90;;;;;;5154949;27;20052;-67
2022/08/21 01:05:35;;;;;;;10.07;5.57;;;14.60;99.90;;;;;;5136572;27;20373;-67
2022/08/21 01:08:03;;;;;;;11.32;4.97;;;14.50;99.90;;;;;;5155420;27;20341;-67
2022/08/21 01:10:30;;;;;;;9.05;4.70;;;14.50;99.90;;;;;;5153947;27;20047;-67
2022/08/21 01:12:58;;;;;;;7.72;4.40;;;14.50;99.90;;;;;;5115950;27;20108;-67
2022/08/21 01:15:31;;;;;;;10.60;4.45;;;14.50;99.90;;;;;;5115940;27;20082;-67
2022/08/21 01:17:58;;;;;;;16.15;5.60;;;14.50;99.90;;;;;;5133531;27;20130;-66
2022/08/21 01:20:27;;;;;;;9.13;4.40;;;14.50;99.90;;;;;;5134172;27;20082;-67
2022/08/21 01:22:55;;;;;;;7.18;4.07;;;14.40;99.90;;;;;;5116084;27;20051;-67
2022/08/21 01:25:22;;;;;;;9.50;5.10;;;14.40;99.90;;;;;;5115104;27;20051;-67
2022/08/21 01:27:49;;;;;;;8.20;4.43;;;14.40;99.90;;;;;;5114800;27;20079;-67
2022/08/21 01:30:19;;;;;;;9.98;5.15;;;14.40;99.90;;;;;;5133111;27;20050;-67
2022/08/21 01:32:47;;;;;;;11.40;5.20;;;14.40;99.90;;;;;;5134631;27;20051;-67
2022/08/21 01:35:15;;;;;;;12.20;4.93;;;14.40;99.90;;;;;;5115745;27;20281;-66
2022/08/21 01:37:43;;;;;;;12.25;5.13;;;14.40;99.90;;;;;;5133190;27;20440;-66
2022/08/21 01:40:15;;;;;;;10.73;4.82;;;14.30;99.90;;;;;;5147226;27;20051;-67
2022/08/21 01:42:43;;;;;;;7.95;5.15;;;14.40;99.90;;;;;;5136410;27;20053;-66
2022/08/21 01:45:11;;;;;;;9.07;5.03;;;14.40;99.90;;;;;;5154208;27;20075;-66
2022/08/21 01:47:38;;;;;;;9.18;6.10;;;14.30;99.90;;;;;;5154350;27;20518;-66
2022/08/21 01:50:06;;;;;;;9.05;5.97;;;14.30;99.90;;;;;;5136168;27;20099;-66
2022/08/21 01:52:34;;;;;;;10.77;5.82;;;14.30;99.90;;;;;;5135203;27;20050;-66
2022/08/21 01:55:01;;;;;;;11.27;6.00;;;14.20;99.90;;;;;;5135975;27;20162;-65
2022/08/21 01:57:29;;;;;;;9.88;5.85;;;14.20;99.90;;;;;;5154274;27;20135;-66
2022/08/21 01:59:56;;;;;;;13.50;6.03;;;14.20;99.90;;;;;;5135368;27;20047;-66
2022/08/21 02:02:23;;;;;;;10.82;5.38;;;14.10;99.90;;;;;;5154507;27;20100;-66
2022/08/21 02:04:50;;;;;;;15.45;5.80;;;14.10;99.90;;;;;;5135965;27;20092;-66
2022/08/21 02:07:16;;;;;;;16.27;6.63;;;14.10;99.90;;;;;;5134981;27;20038;-66
2022/08/21 02:09:43;;;;;;;13.68;6.20;;;14.10;99.90;;;;;;5126080;27;20519;-67
2022/08/21 02:12:11;;;;;;;10.25;6.30;;;14.10;99.90;;;;;;5115162;28;20063;-66
2022/08/21 02:14:39;;;;;;;14.63;5.72;;;14.00;99.90;;;;;;5133057;28;20143;-66
2022/08/21 02:17:06;;;;;;;10.48;5.50;;;14.00;99.90;;;;;;5133613;28;20092;-66
2022/08/21 02:19:33;;;;;;;9.70;5.30;;;14.10;99.90;;;;;;5132738;28;20107;-66
2022/08/21 02:22:00;;;;;;;13.02;6.35;;;14.10;99.90;;;;;;5115337;28;20051;-66
2022/08/21 02:24:27;;;;;;;11.85;6.43;;;14.00;99.90;;;;;;5117052;27;20051;-65
2022/08/21 02:26:54;;;;;;;10.73;6.18;;;14.00;99.90;;;;;;5153400;27;20042;-66
2022/08/21 02:29:20;;;;;;;13.65;6.38;;;14.00;99.90;;;;;;5136010;27;20054;-66
2022/08/21 02:31:48;;;;;;;11.30;6.35;;;14.00;99.90;;;;;;5135947;27;20050;-65
2022/08/21 02:34:15;;;;;;;12.75;6.90;;;14.00;99.90;;;;;;5153406;27;20173;-66
2022/08/21 02:36:42;;;;;;;10.10;6.53;;;13.90;99.90;;;;;;5134286;27;20043;-66
2022/08/21 02:39:09;;;;;;;12.93;6.50;;;13.90;99.90;;;;;;5116854;27;20051;-67
2022/08/21 02:41:36;;;;;;;13.50;6.32;;;13.90;99.90;;;;;;5136517;27;20104;-67
2022/08/21 02:44:03;;;;;;;11.90;6.32;;;13.80;99.90;;;;;;5137502;27;20088;-66
2022/08/21 02:46:30;;;;;;;14.27;6.85;;;13.80;99.90;;;;;;5137264;27;20082;-66
2022/08/21 02:48:58;;;;;;;14.75;6.75;;;13.90;99.90;;;;;;5136399;27;20123;-67
2022/08/21 02:51:25;;;;;;;9.05;6.10;;;13.80;99.90;;;;;;5137105;27;20498;-66
2022/08/21 02:53:52;;;;;;;13.05;7.43;;;13.90;99.90;;;;;;5119565;27;20129;-66
2022/08/21 02:56:22;;;;;;;11.25;6.88;;;13.90;99.90;;;;;;5117761;27;20485;-66
2022/08/21 02:58:51;;;;;;;17.00;7.18;;;13.90;99.90;;;;;;5137039;27;20130;-66
2022/08/21 03:01:19;;;;;;;10.23;6.78;;;13.80;99.90;;;;;;5136678;27;20130;-67
2022/08/21 03:03:49;;;;;;;13.18;7.35;;;13.80;99.90;;;;;;5118064;27;20058;-66
2022/08/21 03:06:19;;;;;;;10.73;6.38;;;13.80;99.90;;;;;;5119691;27;20058;-66
2022/08/21 03:08:47;;;;;;;14.68;7.13;;;13.70;99.90;;;;;;5138295;27;20050;-65
2022/08/21 03:11:15;;;;;;;10.73;6.68;;;13.70;99.90;;;;;;5157293;27;20047;-65
2022/08/21 03:13:42;;;;;;;12.48;7.10;;;13.70;99.90;;;;;;5138856;27;20091;-66
2022/08/21 03:16:09;;;;;;;17.63;7.18;;;13.70;99.90;;;;;;5138455;27;20450;-66
2022/08/21 03:18:36;;;;;;;13.43;7.60;;;13.70;99.90;;;;;;5138559;27;20042;-66
2022/08/21 03:21:03;;;;;;;13.80;7.45;;;13.70;99.90;;;;;;5155050;27;20050;-66
2022/08/21 03:23:31;;;;;;;11.00;7.07;;;13.70;99.90;;;;;;5135671;27;20103;-66
2022/08/21 03:25:59;;;;;;;12.05;7.03;;;13.70;99.90;;;;;;5118331;27;20420;-66
2022/08/21 03:28:26;;;;;;;10.05;6.68;;;13.60;99.90;;;;;;5136386;27;20100;-65
2022/08/21 03:30:54;;;;;;;11.02;6.53;;;13.70;99.90;;;;;;5117064;27;20058;-65
2022/08/21 03:33:22;;;;;;;12.63;7.05;;;13.70;99.90;;;;;;5118198;27;20059;-66
2022/08/21 03:35:56;;;;;;;10.65;7.18;;;13.70;99.90;;;;;;5150528;27;20047;-66
2022/08/21 03:38:23;;;;;;;11.40;6.97;;;13.60;99.90;;;;;;5137522;27;20070;-66
2022/08/21 03:40:51;;;;;;;11.70;7.10;;;13.60;99.90;;;;;;5138547;27;20127;-67
2022/08/21 03:43:18;;;;;;;11.27;7.80;;;13.60;99.90;;;;;;5138257;27;20054;-66
2022/08/21 03:45:45;;;;;;;11.45;6.78;;;13.60;99.90;;;;;;5137153;27;20050;-66
2022/08/21 03:48:12;;;;;;;11.30;6.68;;;13.60;99.90;;;;;;5156888;27;20043;-66
2022/08/21 03:50:41;;;;;;;13.40;7.07;;;13.60;99.90;;;;;;5136693;27;20086;-67
2022/08/21 03:53:09;;;;;;;14.35;6.85;;;13.60;99.90;;;;;;5155852;27;20078;-65
2022/08/21 03:55:35;;;;;;;10.18;6.50;;;13.60;99.90;;;;;;5156800;27;20053;-66
2022/08/21 03:58:05;;;;;;;10.65;6.47;;;13.60;99.90;;;;;;5137214;27;20140;-66
2022/08/21 04:00:31;;;;;;;11.57;7.35;;;13.60;99.90;;;;;;5137878;27;20050;-66
2022/08/21 04:02:58;;;;;;;10.23;7.13;;;13.60;99.90;;;;;;5136806;27;20096;-65
2022/08/21 04:05:28;;;;;;;11.70;7.50;;;13.60;99.90;;;;;;5123134;27;20078;-66
2022/08/21 04:07:57;;;;;;;11.97;6.70;;;13.60;99.90;;;;;;5117251;27;20092;-66
2022/08/21 04:10:25;;;;;;;12.15;7.22;;;13.60;99.90;;;;;;5117261;27;20078;-66
2022/08/21 04:12:52;;;;;;;11.07;7.18;;;13.50;99.90;;;;;;5115922;27;20051;-66
2022/08/21 04:15:22;;;;;;;13.57;7.63;;;13.50;99.90;;;;;;5117296;27;20168;-65
2022/08/21 04:17:49;;;;;;;12.75;6.70;;;13.60;99.90;;;;;;5135244;27;20456;-65
2022/08/21 04:20:16;;;;;;;11.55;7.25;;;13.60;99.90;;;;;;5148570;27;20047;-66
2022/08/21 04:22:44;;;;;;;9.38;6.70;;;13.60;99.90;;;;;;5137610;27;20047;-66
2022/08/21 04:25:11;;;;;;;11.05;6.93;;;13.50;99.90;;;;;;5137206;27;20486;-65
2022/08/21 04:27:39;;;;;;;11.77;6.70;;;13.60;99.90;;;;;;5136740;27;20046;-66
2022/08/21 04:30:07;;;;;;;18.08;7.18;;;13.60;99.90;;;;;;5137001;27;20142;-66
2022/08/21 04:32:35;;;;;;;10.07;7.03;;;13.60;99.90;;;;;;5149601;27;20451;-66
2022/08/21 04:35:05;;;;;;;11.23;6.53;;;13.60;99.90;;;;;;5134303;27;20047;-66
2022/08/21 04:37:31;;;;;;;10.98;6.80;;;13.60;99.90;;;;;;5116735;27;20551;-66
2022/08/21 04:39:59;;;;;;;12.57;6.53;;;13.60;99.90;;;;;;5116314;27;20128;-65
2022/08/21 04:42:27;;;;;;;9.98;6.60;;;13.60;99.90;;;;;;5115906;27;20134;-66
2022/08/21 04:44:55;;;;;;;10.13;6.72;;;13.60;99.90;;;;;;5116915;27;20133;-66
2022/08/21 04:47:23;;;;;;;10.27;6.63;;;13.70;99.90;;;;;;5116115;27;20054;-66
2022/08/21 04:49:51;;;;;;;13.80;6.63;;;13.70;99.90;;;;;;5134527;27;20433;-66
2022/08/21 04:52:22;;;;;;;12.82;6.38;;;13.70;99.90;;;;;;5134809;27;20050;-66
2022/08/21 04:54:51;;;;;;;12.93;6.63;;;13.80;99.90;;;;;;5134210;27;20047;-67
2022/08/21 04:57:19;;;;;;;13.68;7.32;;;13.80;99.90;;;;;;5134805;27;20053;-66
2022/08/21 04:59:49;;;;;;;10.98;6.18;;;13.80;99.90;;;;;;5115884;27;20092;-67
2022/08/21 05:02:16;;;;;;;10.63;6.63;;;13.80;99.90;;;;;;5136716;27;20078;-67
2022/08/21 05:04:47;;;;;;;11.77;6.25;;;13.80;99.90;;;;;;5155131;27;20051;-66
2022/08/21 05:07:19;;;;;;;10.18;6.22;;;13.90;99.90;;;;;;5155534;27;20110;-66
2022/08/21 05:09:47;;;;;;;11.25;6.68;;;13.90;99.90;;;;;;5154308;27;20054;-66
2022/08/21 05:12:14;;;;;;;9.52;5.78;;;13.90;99.90;;;;;;5155133;27;20058;-66
2022/08/21 05:14:42;;;;;;;9.55;5.82;;;14.00;99.90;;;;;;5155176;27;20050;-67
2022/08/21 05:17:09;;;;;;;11.35;6.65;;;14.00;99.90;;;;;;5149563;27;20494;-65
2022/08/21 05:19:36;;;;;;;11.30;6.45;;;14.10;99.90;;;;;;5133844;27;20040;-66
2022/08/21 05:22:03;;;;;;;9.73;6.60;;;14.10;99.90;;;;;;5134544;27;20104;-65
2022/08/21 05:24:32;;;;;;;13.68;7.38;;;14.10;99.90;;;;;;5114926;27;20051;-67
2022/08/21 05:26:59;;;;;;;10.63;7.00;;;14.20;99.90;;;;;;5115791;27;20090;-66
2022/08/21 05:29:25;;;;;;;10.73;6.55;;;14.20;99.90;;;;;;5132553;27;20043;-66
2022/08/21 05:31:52;;;;;;;10.93;6.47;;;14.30;99.90;;;;;;5150433;27;20466;-67
2022/08/21 05:34:21;;;;;;;15.82;7.13;;;14.20;99.90;;;;;;5155013;27;20047;-66
2022/08/21 05:36:48;;;;;;;9.85;6.57;;;14.30;99.90;;;;;;5135686;27;20083;-69
2022/08/21 05:39:15;;;;;;;12.85;6.43;;;14.40;99.90;;;;;;5135874;27;20050;-66
2022/08/21 05:41:43;;;;;;;12.32;6.13;;;14.50;99.90;;;;;;5136663;27;20130;-66
2022/08/21 05:44:10;;;;;;;11.10;6.18;;;14.50;99.90;;;;;;5153830;27;20525;-66
2022/08/21 05:46:37;;;;;;;9.57;5.68;;;14.60;99.90;;;;;;5137929;27;20051;-67
2022/08/21 05:49:04;;;;;;;9.82;5.47;;;14.80;99.90;;;;;;5115461;28;20055;-66
2022/08/21 05:51:31;;;;;;;12.85;5.10;;;14.90;99.90;;;;;;5114561;28;20051;-66
2022/08/21 05:53:58;;;;;;;9.90;5.60;;;15.00;99.90;;;;;;5115729;28;20051;-66
2022/08/21 05:56:25;;;;;;;12.57;5.95;;;15.20;99.90;;;;;;5115439;28;20055;-66
2022/08/21 05:58:53;;;;;;;10.52;5.95;;;15.40;99.90;;;;;;5121942;27;20034;-66
2022/08/21 06:01:20;;;;;;;11.02;5.32;;;15.50;99.90;;;;;;5154490;27;20050;-65
2022/08/21 06:03:47;;;;;;;9.60;4.82;;;15.70;99.90;;;;;;5154566;27;20050;-65
2022/08/21 06:06:15;;;;;;;12.43;5.72;;;15.80;99.90;;;;;;5135148;27;20051;-66
2022/08/21 06:08:42;;;;;;;12.00;5.50;;;16.00;99.90;;;;;;5136012;27;20481;-66
2022/08/21 06:11:10;;;;;;;10.30;5.13;;;16.20;99.90;;;;;;5135421;27;20086;-66
2022/08/21 06:13:38;;;;;;;12.65;4.97;;;16.40;99.90;;;;;;5152945;27;20046;-66
2022/08/21 06:16:10;;;;;;;10.60;5.13;;;16.60;99.90;;;;;;5158596;27;20548;-66
2022/08/21 06:18:37;;;;;;;7.25;4.65;;;16.90;99.90;;;;;;5157754;27;20074;-67
2022/08/21 06:21:05;;;;;;;8.48;4.93;;;17.20;99.90;;;;;;5139744;27;20086;-66
2022/08/21 06:23:32;;;;;;;10.63;5.07;;;17.50;99.90;;;;;;5158510;27;20054;-66
2022/08/21 06:25:59;;;;;;;9.48;4.03;;;17.90;99.90;;;;;;5157087;27;20398;-66
2022/08/21 06:28:26;;;;;;;9.45;4.22;;;18.40;99.90;;;;;;5148086;27;20039;-66
2022/08/21 06:30:53;;;;;;;7.97;4.32;;;19.20;99.90;;;;;;5133571;27;20047;-67
2022/08/21 06:33:21;;;;;;;6.90;3.95;;;19.70;99.90;;;;;;5127643;27;20107;-67
2022/08/21 06:35:48;;;;;;;8.70;4.10;;;20.30;99.90;;;;;;5134876;27;20047;-67
2022/08/21 06:38:15;;;;;;;13.07;5.13;;;20.90;99.90;;;;;;5148929;27;20051;-68
2022/08/21 06:40:42;;;;;;;7.55;3.58;;;21.50;99.90;;;;;;5144887;27;20103;-66
2022/08/21 06:43:11;;;;;;;11.43;3.83;;;22.10;99.90;;;;;;5131984;27;20107;-66
2022/08/21 06:45:38;;;;;;;10.10;3.80;;;22.60;99.90;;;;;;5130761;27;20079;-66
2022/08/21 06:48:06;;;;;;;10.60;3.72;;;23.00;99.90;;;;;;5124803;27;20077;-67
2022/08/21 06:50:35;;;;;;;7.07;3.28;;;23.40;99.90;;;;;;5128418;27;20057;-66
2022/08/21 06:53:05;;;;;;;8.05;3.85;;;23.80;99.90;;;;;;5126792;27;20047;-67
2022/08/21 06:55:32;;;;;;;;;;;24.20;99.90;;;;;;5148784;27;20422;-66
2022/08/21 06:57:59;;;;;;;7.38;3.55;;;24.80;99.90;;;;;;5150783;27;19927;-66
2022/08/21 07:00:26;;;;;;;7.97;3.05;;;24.80;99.90;;;;;;5132606;27;20078;-66
2022/08/21 07:02:53;;;;;;;8.80;3.67;;;25.10;99.90;;;;;;5122769;27;20044;-66
2022/08/21 07:05:20;;;;;;;5.95;2.60;;;25.30;99.70;;;;;;5146306;27;20554;-66
2022/08/21 07:07:49;;;;;;;8.93;3.45;;;25.50;99.00;;;;;;5126172;27;20443;-65
2022/08/21 07:10:16;;;;;;;9.23;2.92;;;25.70;98.50;;;;;;5142671;27;20044;-66
2022/08/21 07:12:43;;;;;;;7.18;2.78;;;26.30;98.00;;;;;;5128065;27;20074;-66
2022/08/21 07:15:11;;;;;;;8.25;2.70;;;26.60;96.90;;;;;;5149842;27;20051;-66
2022/08/21 07:17:38;;;;;;;6.53;2.53;;;26.80;95.80;;;;;;5128937;27;20078;-66
2022/08/21 07:20:05;;;;;;;6.18;3.10;;;26.90;94.80;;;;;;5128827;27;20096;-68
2022/08/21 07:22:32;;;;;;;10.02;2.83;;;27.00;94.20;;;;;;5128989;27;20536;-66
2022/08/21 07:25:00;;;;;;;7.22;2.10;;;27.00;93.70;;;;;;5150075;27;20047;-67
2022/08/21 07:27:27;;;;;;;4.43;2.10;;;27.10;93.10;;;;;;5150177;27;20496;-66
2022/08/21 07:29:54;;;;;;;5.55;2.28;;;27.10;92.50;;;;;;5127451;27;20075;-66
2022/08/21 07:32:21;;;;;;;8.15;2.47;;;27.30;92.10;;;;;;5127204;27;20096;-66
2022/08/21 07:34:48;;;;;;;4.32;1.98;;;27.20;91.30;;;;;;5142914;27;20051;-67
2022/08/21 07:37:15;;;;;;;6.30;2.20;;;27.30;91.20;;;;;;5152712;27;20058;-66
2022/08/21 07:39:41;;;;;;;6.95;2.08;;;27.60;90.90;;;;;;5149443;27;20050;-66
2022/08/21 07:42:10;;;;;;;6.32;2.17;;;27.60;91.00;;;;;;5126145;27;20091;-66
2022/08/21 07:44:37;;;;;;;6.13;2.10;;;27.70;90.60;;;;;;5128729;27;20043;-67
2022/08/21 07:47:04;;;;;;;5.10;2.00;;;28.00;90.50;;;;;;5147602;27;20091;-66
2022/08/21 07:49:31;;;;;;;4.82;1.88;;;28.10;89.60;;;;;;5146111;27;20042;-67
2022/08/21 07:51:58;;;;;;;10.93;2.22;;;28.50;89.10;;;;;;5147370;27;20420;-67
2022/08/21 07:54:25;;;;;;;8.15;2.28;;;28.10;87.50;;;;;;5120924;27;20191;-67
2022/08/21 07:56:52;;;;;;;7.78;1.85;;;28.20;87.50;;;;;;5144731;27;20126;-69
2022/08/21 07:59:20;;;;;;;8.77;2.42;;;28.40;87.80;;;;;;5126816;27;20043;-66
2022/08/21 08:01:47;;;;;;;6.13;1.73;;;28.80;87.00;;;;;;5143939;27;20398;-66
2022/08/21 08:04:14;;;;;;;8.65;2.47;;;29.30;86.60;;;;;;5147701;27;20042;-67
2022/08/21 08:06:41;;;;;;;7.32;2.13;;;29.10;85.60;;;;;;5145799;27;20562;-66
2022/08/21 08:09:08;;;;;;;6.60;2.45;;;28.90;85.80;;;;;;5148906;27;20085;-67
2022/08/21 08:11:36;;;;;;;6.75;1.98;;;28.40;86.50;;;;;;5125187;27;20058;-67
2022/08/21 08:14:03;;;;;;;6.25;2.33;;;28.20;87.10;;;;;;5135693;27;20047;-67
2022/08/21 08:16:31;;;;;;;7.28;2.75;;;28.00;87.90;;;;;;5128127;27;20391;-67
2022/08/21 08:18:58;;;;;;;7.57;2.28;;;28.20;87.30;;;;;;5127347;27;20478;-67
2022/08/21 08:21:26;;;;;;;8.50;2.72;;;28.60;87.30;;;;;;5147642;27;20493;-67
2022/08/21 08:23:53;;;;;;;7.72;2.28;;;28.60;86.60;;;;;;5148285;27;20039;-67
2022/08/21 08:26:20;;;;;;;7.72;2.22;;;27.80;86.90;;;;;;5142381;27;20126;-67
2022/08/21 08:28:47;;;;;;;8.27;2.13;;;27.30;87.70;;;;;;5153821;27;20043;-66
2022/08/21 08:31:14;;;;;;;10.05;2.20;;;27.20;88.60;;;;;;5130199;27;20057;-67
2022/08/21 08:33:42;;;;;;;8.15;2.50;;;27.20;88.90;;;;;;5138118;27;20081;-67
2022/08/21 08:36:15;;;;;;;5.30;2.00;;;27.60;88.60;;;;;;5125859;27;20050;-68
2022/08/21 08:38:42;;;;;;;7.35;2.40;;;28.20;87.20;;;;;;5143045;27;20056;-68
2022/08/21 08:41:13;;;;;;;7.93;2.47;;;28.70;86.90;;;;;;5145565;27;20058;-67
2022/08/21 08:43:41;;;;;;;7.40;2.35;;;29.30;84.90;;;;;;5145873;27;20107;-66
2022/08/21 08:46:14;;;;;;;13.98;2.92;;;29.50;85.20;;;;;;5149215;27;20189;-65
2022/08/21 08:48:51;;;;;;;5.88;2.10;;;29.40;84.20;;;;;;5143885;27;20039;-67
2022/08/21 08:51:23;;;;;;;6.63;2.28;;;29.20;84.60;;;;;;5152219;27;20038;-67
2022/08/21 08:53:56;;;;;;;8.68;2.75;;;28.90;85.40;;;;;;5125679;27;20054;-67
2022/08/21 08:56:28;;;;;;;8.85;2.97;;;28.60;86.20;;;;;;5131064;27;20086;-67
2022/08/21 08:58:59;;;;;;;6.35;2.20;;;28.70;86.10;;;;;;5144184;27;20078;-66
2022/08/21 09:01:26;;;;;;;9.20;3.15;;;28.40;86.70;;;;;;5122706;27;20161;-66
2022/08/21 09:03:54;;;;;;;6.07;2.20;;;28.30;87.20;;;;;;5144762;27;20047;-67
2022/08/21 09:06:41;;;;;;;7.93;2.53;;;28.20;87.90;;;;;;5143018;27;20099;-67
2022/08/21 09:09:26;;;;;;;6.60;1.92;;;27.70;88.70;;;;;;5142510;27;20050;-68
2022/08/21 09:11:59;;;;;;;10.43;2.75;;;27.20;89.40;;;;;;5125679;27;20058;-67
2022/08/21 09:14:40;;;;;;;11.10;2.85;;;26.60;90.60;;;;;;5144567;27;20516;-67
2022/08/21 09:17:20;;;;;;;11.50;2.40;;;26.70;90.30;;;;;;5142042;27;20469;-67
2022/08/21 09:20:01;;;;;;;8.50;2.58;;;27.50;90.00;;;;;;5146601;27;20039;-68
2022/08/21 09:22:37;;;;;;;8.55;2.58;;;28.50;87.60;;;;;;5137894;27;20138;-68
2022/08/21 09:25:12;;;;;;;6.65;2.05;;;29.70;87.40;;;;;;5127906;27;20095;-67
2022/08/21 09:27:39;;;;;;;9.73;3.13;;;30.40;85.10;;;;;;5142675;27;20047;-67
2022/08/21 09:30:09;;;;;;;6.38;2.42;;;30.00;84.40;;;;;;5121262;27;20046;-67
2022/08/21 09:32:37;;;;;;;6.97;2.33;;;30.20;84.70;;;;;;5147696;27;20054;-67
2022/08/21 09:35:10;;;;;;;6.35;2.13;;;30.30;83.40;;;;;;5129909;27;20066;-67
2022/08/21 09:37:48;;;;;;;8.80;2.30;;;30.70;82.00;;;;;;5118686;27;20510;-66
2022/08/21 09:40:30;;;;;;;9.80;2.70;;;31.40;80.70;;;;;;5124379;27;20096;-68
2022/08/21 09:42:59;;;;;;;5.25;2.08;;;31.40;81.10;;;;;;5124750;27;20046;-66
2022/08/21 09:45:26;;;;;;;9.55;2.45;;;31.20;81.10;;;;;;5143597;27;20158;-67
2022/08/21 09:47:53;;;;;;;5.82;1.73;;;31.50;81.30;;;;;;5140781;27;20093;-68
2022/08/21 09:50:25;;;;;;;3.92;1.88;;;31.50;80.20;;;;;;5128645;27;20039;-68
2022/08/21 09:52:55;;;;;;;7.50;2.20;;;31.80;79.60;;;;;;5123709;27;20050;-67
2022/08/21 09:58:18;;;;;;;6.13;2.08;;;31.40;78.60;;;;;;5123495;27;20039;-65
2022/08/21 10:00:45;;;;;;;6.38;1.88;;;30.90;79.80;;;;;;5127586;27;20039;-67
2022/08/21 10:03:16;;;;;;;8.63;2.38;;;30.40;80.50;;;;;;5136103;27;20047;-67
2022/08/21 10:05:55;;;;;;;10.77;2.40;;;30.60;81.20;;;;;;5141814;27;20091;-66
2022/08/21 10:08:24;;;;;;;5.10;1.95;;;31.00;79.60;;;;;;5145345;27;20447;-66
2022/08/21 10:10:54;;;;;;;8.03;2.40;;;31.00;79.50;;;;;;5142846;27;20089;-67
2022/08/21 10:13:28;;;;;;;6.47;1.88;;;31.00;80.10;;;;;;5142853;27;20669;-65
2022/08/21 10:16:14;;;;;;;6.35;1.88;;;30.70;78.50;;;;;;5130063;27;20107;-67
2022/08/21 10:18:44;;;;;;;6.20;2.30;;;31.10;78.30;;;;;;5128860;27;20057;-67
2022/08/21 10:21:19;;;;;;;6.38;2.03;;;31.30;77.10;;;;;;5146909;27;20050;-66
2022/08/21 10:24:12;;;;;;;6.95;1.92;;;31.20;76.00;;;;;;5127874;27;20042;-66
2022/08/21 10:26:53;;;;;;;5.80;2.13;;;31.80;77.00;;;;;;5125424;27;20051;-66
2022/08/21 10:29:40;;;;;;;6.13;2.13;;;31.80;76.50;;;;;;5134598;27;20407;-67
2022/08/21 10:32:20;;;;;;;5.70;1.83;;;31.20;77.00;;;;;;5126021;27;20082;-66
2022/08/21 10:34:54;;;;;;;5.55;1.75;;;30.40;76.20;;;;;;5125496;27;20095;-67
2022/08/21 10:37:34;;;;;;;4.97;1.75;;;29.40;77.90;;;;;;5151308;27;20046;-67
2022/08/21 10:40:14;;;;;;;7.88;1.88;;;28.70;80.00;;;;;;5141186;27;20035;-68
2022/08/21 10:42:55;;;;;;;6.25;2.58;;;27.90;81.90;;;;;;5132411;27;20122;-68
2022/08/21 10:45:33;;;;;;;7.03;1.90;;;27.40;83.00;;;;;;5143785;27;20049;-69
2022/08/21 10:48:05;;;;;;;5.43;1.70;;;26.80;84.00;;;;;;5137733;27;20727;-68
2022/08/21 10:50:48;;;;;;;4.97;2.10;;;26.10;86.50;;;;;;5123250;27;20092;-68
2022/08/21 10:53:29;;;;;;;7.20;2.25;;;25.60;89.20;;;;;;5120330;27;20054;-67
2022/08/21 10:56:02;;;;;;;7.68;2.03;;;25.20;91.30;;;;;;5140896;27;20043;-66
2022/08/21 10:58:32;;;;;;;7.00;2.55;;;24.90;91.40;;;;;;5140257;27;20179;-67
2022/08/21 11:01:05;;;;;;;10.95;2.85;;;24.70;92.10;;;;;;5142845;27;20038;-66
2022/08/21 11:03:36;;;;;;;10.85;2.80;;;24.70;92.50;;;;;;5130303;27;20453;-67
2022/08/21 11:06:09;;;;;;;9.63;2.70;;;24.60;92.80;;;;;;5129819;27;20110;-66
2022/08/21 11:08:40;;;;;;;7.18;2.40;;;24.70;93.20;;;;;;5125893;27;20054;-67
2022/08/21 11:11:13;;;;;;;10.82;2.75;;;25.60;93.10;;;;;;5144784;27;20043;-66
2022/08/21 11:13:45;;;;;;;8.35;2.50;;;26.90;91.50;;;;;;5155775;27;20050;-67
2022/08/21 11:16:20;;;;;;;6.20;2.58;;;27.70;90.50;;;;;;5126655;27;20046;-69
2022/08/21 11:18:54;;;;;;;7.60;2.13;;;28.60;88.10;;;;;;5152438;27;20098;-68
2022/08/21 11:21:34;;;;;;;8.98;2.60;;;29.40;84.40;;;;;;5144386;27;20092;-67
2022/08/21 11:24:15;;;;;;;7.15;2.17;;;30.30;83.00;;;;;;5144437;27;20046;-67
2022/08/21 11:26:45;;;;;;;9.18;2.38;;;30.60;81.50;;;;;;5144567;27;20494;-67
2022/08/21 11:29:14;;;;;;;;;;;30.90;80.60;;;;;;5152021;27;20070;-67
2022/08/21 11:31:55;;;;;;;4.40;2.13;;;31.30;79.70;;;;;;5148505;27;19962;-67
2022/08/21 11:34:36;;;;;;;4.57;1.60;;;31.80;79.10;;;;;;5143220;27;20047;-67
2022/08/21 11:37:20;;;;;;;10.27;2.70;;;32.40;78.80;;;;;;5142835;27;20047;-68
2022/08/21 11:39:56;;;;;;;5.68;1.98;;;32.50;76.10;;;;;;5125589;27;20054;-67
2022/08/21 11:42:31;;;;;;;5.18;2.00;;;33.00;76.40;;;;;;5143254;27;20055;-67
2022/08/21 11:45:10;;;;;;;8.80;2.25;;;32.80;75.00;;;;;;5126206;27;20074;-67
2022/08/21 11:47:50;;;;;;;7.70;2.13;;;32.10;76.00;;;;;;5130768;27;20046;-67
2022/08/21 11:50:21;;;;;;;6.35;2.67;;;31.50;76.50;;;;;;5129867;27;20051;-67
2022/08/21 11:52:53;;;;;;;9.38;2.38;;;30.40;78.40;;;;;;5128125;27;20063;-67
2022/08/21 11:55:27;;;;;;;7.22;2.25;;;30.00;79.50;;;;;;5122503;27;20099;-67
2022/08/21 11:57:58;;;;;;;9.43;2.30;;;29.20;80.60;;;;;;5141223;27;20478;-67
2022/08/21 12:00:28;;;;;;;5.03;2.10;;;29.10;81.40;;;;;;5145562;27;20038;-67
2022/08/21 12:02:59;;;;;;;8.43;2.40;;;28.90;81.20;;;;;;5136355;27;20062;-66
2022/08/21 12:05:32;;;;;;;10.93;1.90;;;29.70;80.70;;;;;;5147215;27;20511;-67
2022/08/21 12:08:07;;;;;;;7.22;1.75;;;30.80;78.90;;;;;;5126428;27;20053;-67
2022/08/21 12:10:39;;;;;;;7.40;1.95;;;31.60;76.80;;;;;;5150003;27;20451;-66
2022/08/21 12:13:09;;;;;;;3.72;1.42;;;32.20;74.40;;;;;;5124603;27;20051;-67
2022/08/21 12:15:36;;;;;;;6.25;2.05;;;32.60;73.10;;;;;;5125461;27;20491;-66
2022/08/21 12:18:06;;;;;;;6.53;1.75;;;32.80;72.20;;;;;;5120498;27;20392;-67
2022/08/21 12:20:44;;;;;;;6.45;1.90;;;32.80;71.90;;;;;;5132160;27;20122;-67
2022/08/21 12:23:25;;;;;;;6.93;1.70;;;33.20;71.50;;;;;;5124795;27;20047;-67
2022/08/21 12:26:10;;;;;;;5.22;1.75;;;33.50;71.60;;;;;;5113281;28;20050;-67
2022/08/21 12:28:37;;;;;;;3.58;1.60;;;33.30;70.70;;;;;;5116127;27;20082;-67
2022/08/21 12:31:04;;;;;;;5.63;1.70;;;33.40;71.40;;;;;;5134163;27;20096;-68
2022/08/21 12:33:33;;;;;;;5.57;1.73;;;33.40;71.30;;;;;;5112641;27;20075;-68
2022/08/21 12:36:06;;;;;;;4.45;1.58;;;33.20;70.70;;;;;;5111971;28;20088;-66
2022/08/21 12:38:43;;;;;;;4.90;2.15;;;33.20;71.30;;;;;;5123301;27;20490;-67
2022/08/21 12:41:19;;;;;;;4.90;1.90;;;33.10;71.10;;;;;;5132474;27;20058;-67
2022/08/21 12:43:52;;;;;;;4.25;1.70;;;32.10;71.80;;;;;;5133516;27;20164;-67
2022/08/21 12:46:22;;;;;;;5.80;1.98;;;31.40;72.30;;;;;;5131554;27;20071;-66
2022/08/21 12:48:53;;;;;;;4.00;1.33;;;30.60;72.50;;;;;;5132735;27;20088;-67
2022/08/21 12:51:25;;;;;;;5.82;1.63;;;30.20;72.70;;;;;;5131778;27;20088;-67
2022/08/21 12:53:54;;;;;;;7.05;1.80;;;29.80;73.90;;;;;;5117777;27;20089;-66
2022/08/21 12:56:24;;;;;;;;;;;29.30;74.60;;;;;;5113507;28;20047;-67
2022/08/21 12:58:52;;;;;;;5.55;1.30;;;28.80;75.00;;;;;;5111658;28;20016;-66